Time,TemperatureF,DewpointF,PressureIn,WindDirection,WindDirectionDegrees,WindSpeedMPH,WindSpeedGustMPH,Humidity,HourlyPrecipIn,Conditions,Clouds,dailyrainin,SolarRadiationWatts/m^2,SoftwareType,DateUTC
2013-08-15 03:00:00,40.0,39.0,-100.00,SW,225,0.0,-999.0,95,-99.99,,,-99.99,0.000000,,2013-08-15 07:00:00,
2013-08-15 03:42:00,40.0,39.0,-100.00,SW,225,0.0,-999.0,95,-99.99,,,-99.99,0.000000,,2013-08-15 07:42:00,
2013-08-15 03:52:00,40.0,39.0,-100.00,SW,225,0.0,-999.0,95,-99.99,,,-99.99,0.000000,,2013-08-15 07:52:00,
2013-08-15 04:00:00,40.0,39.0,-100.00,SW,225,0.0,-999.0,96,-99.99,,,-99.99,0.000000,,2013-08-15 08:00:00,
2013-08-15 04:42:00,40.0,39.0,-100.00,SW,225,0.0,-999.0,96,-99.99,,,-99.99,0.000000,,2013-08-15 08:42:00,
2013-08-15 04:52:00,40.0,39.0,-100.00,SW,225,0.0,-999.0,96,-99.99,,,-99.99,0.000000,,2013-08-15 08:52:00,
2013-08-15 06:00:00,43.0,41.0,-100.00,SW,225,0.0,-999.0,92,-99.99,,,-99.99,0.000000,,2013-08-15 10:00:00,
2013-08-15 06:42:00,43.0,41.0,-100.00,SW,225,0.0,-999.0,92,-99.99,,,-99.99,0.000000,,2013-08-15 10:42:00,
2013-08-15 06:52:00,43.0,41.0,-100.00,SW,225,0.0,-999.0,92,-99.99,,,-99.99,0.000000,,2013-08-15 10:52:00,
2013-08-15 07:00:00,40.0,39.0,-100.00,SW,225,0.0,-999.0,93,-99.99,,,-99.99,2.320000,,2013-08-15 11:00:00,
2013-08-15 07:42:00,40.0,39.0,-100.00,SW,225,0.0,-999.0,93,-99.99,,,-99.99,2.320000,,2013-08-15 11:42:00,
2013-08-15 07:52:00,40.0,39.0,-100.00,SW,225,0.0,-999.0,93,-99.99,,,-99.99,2.320000,,2013-08-15 11:52:00,
2013-08-15 10:00:00,64.0,50.0,-100.00,West,270,2.0,-999.0,59,-99.99,,,-99.99,402.519989,,2013-08-15 14:00:00,
2013-08-15 10:47:00,64.0,50.0,-100.00,West,270,2.0,-999.0,59,-99.99,,,-99.99,402.519989,,2013-08-15 14:47:00,
2013-08-15 10:56:00,64.0,50.0,-100.00,West,270,2.0,-999.0,59,-99.99,,,-99.99,402.519989,,2013-08-15 14:56:00,
2013-08-15 11:00:00,69.0,50.0,-100.00,West,270,3.0,-999.0,50,-99.99,,,-99.99,554.479980,,2013-08-15 15:00:00,
2013-08-15 11:43:00,69.0,50.0,-100.00,West,270,3.0,-999.0,50,-99.99,,,-99.99,554.479980,,2013-08-15 15:43:00,
2013-08-15 11:54:00,69.0,50.0,-100.00,West,270,3.0,-999.0,50,-99.99,,,-99.99,554.479980,,2013-08-15 15:54:00,
2013-08-15 12:00:00,73.0,48.0,-100.00,WSW,247,2.0,-999.0,42,-99.99,,,-99.99,679.760010,,2013-08-15 16:00:00,
2013-08-15 12:44:00,73.0,48.0,-100.00,WSW,247,2.0,-999.0,42,-99.99,,,-99.99,679.760010,,2013-08-15 16:44:00,
2013-08-15 12:55:00,73.0,48.0,-100.00,WSW,247,2.0,-999.0,42,-99.99,,,-99.99,679.760010,,2013-08-15 16:55:00,
2013-08-15 13:00:00,-999.0,-99.9,-100.00,SW,225,3.0,-999.0,-999,-99.99,,,-99.99,,,2013-08-15 17:00:00,
2013-08-15 13:55:00,76.0,48.0,-100.00,SW,225,3.0,-999.0,37,-99.99,,,-99.99,765.599976,,2013-08-15 17:55:00,
2013-08-15 15:00:00,78.0,48.0,-100.00,SW,225,3.0,-999.0,34,-99.99,,,-99.99,793.440002,,2013-08-15 19:00:00,
2013-08-15 15:49:00,78.0,48.0,-100.00,SW,225,3.0,-999.0,34,-99.99,,,-99.99,793.440002,,2013-08-15 19:49:00,
2013-08-15 16:00:00,79.0,49.0,-100.00,SW,225,3.0,-999.0,35,-99.99,,,-99.99,726.159973,,2013-08-15 20:00:00,
2013-08-15 16:46:00,79.0,49.0,-100.00,SW,225,3.0,-999.0,35,-99.99,,,-99.99,726.159973,,2013-08-15 20:46:00,
2013-08-15 18:00:00,79.0,50.0,-100.00,SSW,202,2.0,-999.0,36,-99.99,,,-99.99,473.279999,,2013-08-15 22:00:00,
2013-08-15 18:49:00,79.0,50.0,-100.00,SSW,202,2.0,-999.0,36,-99.99,,,-99.99,473.279999,,2013-08-15 22:49:00,
2013-08-15 18:58:00,79.0,50.0,-100.00,SSW,202,2.0,-999.0,36,-99.99,,,-99.99,473.279999,,2013-08-15 22:58:00,
2013-08-15 19:00:00,77.0,50.0,-100.00,South,180,1.0,-999.0,38,-99.99,,,-99.99,306.239990,,2013-08-15 23:00:00,
2013-08-15 19:48:00,77.0,50.0,-100.00,South,180,1.0,-999.0,38,-99.99,,,-99.99,306.239990,,2013-08-15 23:48:00,
2013-08-15 19:55:00,77.0,50.0,-100.00,South,180,1.0,-999.0,38,-99.99,,,-99.99,306.239990,,2013-08-15 23:55:00,
2013-08-15 20:00:00,74.0,52.0,-100.00,NNE,22,1.0,-999.0,47,-99.99,,,-99.99,149.639999,,2013-08-16 00:00:00,
2013-08-15 20:46:00,74.0,52.0,-100.00,NNE,22,1.0,-999.0,47,-99.99,,,-99.99,149.639999,,2013-08-16 00:46:00,
2013-08-15 20:52:00,74.0,52.0,-100.00,NNE,22,1.0,-999.0,47,-99.99,,,-99.99,149.639999,,2013-08-16 00:52:00,
2013-08-15 21:00:00,67.0,53.0,-100.00,NE,45,0.0,-999.0,62,-99.99,,,-99.99,23.200001,,2013-08-16 01:00:00,
2013-08-15 21:43:00,-999.0,-99.9,-100.00,NE,45,0.0,-999.0,-999,-99.99,,,-99.99,,,2013-08-16 01:43:00,
2013-08-15 21:54:00,67.0,53.0,-100.00,NE,45,0.0,-999.0,62,-99.99,,,-99.99,23.200001,,2013-08-16 01:54:00,
2013-08-15 22:00:00,57.0,51.0,-100.00,West,270,0.0,-999.0,80,-99.99,,,-99.99,0.000000,,2013-08-16 02:00:00,
2013-08-15 22:44:00,57.0,51.0,-100.00,West,270,0.0,-999.0,80,-99.99,,,-99.99,0.000000,,2013-08-16 02:44:00,
2013-08-15 22:52:00,57.0,51.0,-100.00,West,270,0.0,-999.0,80,-99.99,,,-99.99,0.000000,,2013-08-16 02:52:00,
2013-08-15 23:00:00,53.0,49.0,-100.00,WSW,247,1.0,-999.0,86,-99.99,,,-99.99,0.000000,,2013-08-16 03:00:00,
2013-08-15 23:43:00,53.0,49.0,-100.00,WSW,247,1.0,-999.0,86,-99.99,,,-99.99,0.000000,,2013-08-16 03:43:00,
2013-08-15 23:53:00,53.0,49.0,-100.00,WSW,247,1.0,-999.0,86,-99.99,,,-99.99,0.000000,,2013-08-16 03:53:00,